Time;durP1;ratioP1;P1;durP2;ratioP2;P2;SDS_P1;SDS_P2;PMS_P1;PMS_P2;Temp;Humidity;BMP_temperature;BMP_pressure;BME280_temperature;BME280_humidity;BME280_pressure;Samples;Min_cycle;Max_cycle;Signal;HPM_P1;HPM_P2
2021/07/16 00:01:50;;;;;;;10.57;4.45;;;;;;;19.69;96.41;96224.03;4977201;28;20211;-73
2021/07/16 00:04:17;;;;;;;11.52;4.90;;;;;;;19.95;95.50;96222.75;4976570;28;20203;-73
2021/07/16 00:06:44;;;;;;;15.40;4.70;;;;;;;19.82;94.83;96220.31;4976344;28;20230;-73
2021/07/16 00:09:11;;;;;;;8.13;3.85;;;;;;;19.83;94.62;96220.06;4975542;28;20283;-73
2021/07/16 00:11:37;;;;;;;7.90;4.22;;;;;;;19.63;95.72;96216.91;4976518;28;20203;-73
2021/07/16 00:14:04;;;;;;;8.23;3.95;;;;;;;19.67;93.94;96219.94;4976332;28;20203;-73
2021/07/16 00:16:31;;;;;;;12.35;3.90;;;;;;;19.62;94.62;96225.19;4976319;28;20202;-73
2021/07/16 00:18:57;;;;;;;11.05;4.20;;;;;;;19.58;95.68;96219.47;4976090;28;20222;-73
2021/07/16 00:21:25;;;;;;;6.75;4.53;;;;;;;19.66;95.02;96216.44;4975957;28;20218;-73
2021/07/16 00:23:52;;;;;;;9.07;3.90;;;;;;;19.67;94.57;96210.06;4976535;28;20930;-73
2021/07/16 00:26:20;;;;;;;5.28;3.83;;;;;;;19.53;93.89;96213.22;4976403;28;20231;-73
2021/07/16 00:28:46;;;;;;;8.68;4.07;;;;;;;19.37;94.72;96218.44;4973952;28;20994;-73
2021/07/16 00:31:13;;;;;;;11.10;3.90;;;;;;;19.47;93.91;96216.00;4975976;28;20218;-73
2021/07/16 00:33:40;;;;;;;11.93;4.20;;;;;;;19.50;93.40;96220.88;4976552;28;20203;-73
2021/07/16 00:36:07;;;;;;;7.35;3.85;;;;;;;19.38;93.76;96223.53;4976215;28;20244;-73
2021/07/16 00:38:34;;;;;;;8.82;4.30;;;;;;;19.51;94.01;96217.97;4975856;28;20207;-73
2021/07/16 00:41:01;;;;;;;10.70;4.25;;;;;;;19.43;94.95;96230.88;4975923;28;20203;-73
2021/07/16 00:43:27;;;;;;;13.68;4.65;;;;;;;19.44;95.26;96227.97;4976521;28;21022;-73
2021/07/16 00:45:54;;;;;;;13.55;4.63;;;;;;;19.55;95.11;96229.00;4975758;28;20223;-73
2021/07/16 00:48:20;;;;;;;11.20;4.22;;;;;;;19.55;95.16;96229.81;4975783;28;20207;-73
2021/07/16 00:50:48;;;;;;;8.55;4.03;;;;;;;19.57;95.26;96233.88;4975267;28;20231;-73
2021/07/16 00:53:18;;;;;;;10.93;4.70;;;;;;;19.70;94.87;96228.31;4976077;28;20195;-73
2021/07/16 00:55:46;;;;;;;7.93;4.45;;;;;;;19.72;95.02;96226.22;4975792;28;20196;-73
2021/07/16 00:58:13;;;;;;;10.93;4.85;;;;;;;19.67;94.87;96223.44;4976553;28;20556;-73
2021/07/16 01:00:40;;;;;;;11.05;4.68;;;;;;;19.51;95.24;96220.63;4975213;28;20230;-73
2021/07/16 01:03:06;;;;;;;10.65;4.60;;;;;;;19.53;95.20;96217.75;4975621;28;21014;-73
2021/07/16 01:05:34;;;;;;;10.27;4.47;;;;;;;19.55;95.19;96212.97;4976246;28;20215;-73
2021/07/16 01:08:01;;;;;;;10.60;4.93;;;;;;;19.55;94.90;96215.66;4975381;28;20226;-73
2021/07/16 01:10:28;;;;;;;10.95;4.82;;;;;;;19.58;95.18;96213.31;4975034;28;20230;-74
2021/07/16 01:12:56;;;;;;;12.23;4.55;;;;;;;19.65;94.92;96219.34;4975605;28;20207;-73
2021/07/16 01:15:24;;;;;;;10.15;4.60;;;;;;;19.69;94.77;96218.66;4975833;28;20203;-73
2021/07/16 01:17:52;;;;;;;10.55;5.00;;;;;;;19.79;94.30;96215.41;4974740;28;20199;-73
2021/07/16 01:20:20;;;;;;;9.70;4.85;;;;;;;19.79;93.87;96221.56;4975266;28;20226;-73
2021/07/16 01:22:48;;;;;;;10.20;5.00;;;;;;;19.65;94.42;96214.84;4975448;28;20203;-73
2021/07/16 01:25:18;;;;;;;8.07;4.60;;;;;;;19.73;94.25;96217.16;4975606;28;20218;-73
2021/07/16 01:27:46;;;;;;;10.18;5.03;;;;;;;19.66;94.01;96219.13;4974614;28;20797;-73
2021/07/16 01:30:15;;;;;;;11.00;5.32;;;;;;;19.68;93.84;96218.91;4973261;28;20235;-73
2021/07/16 01:32:42;;;;;;;12.63;5.75;;;;;;;19.60;94.18;96211.22;4975217;28;20242;-73
2021/07/16 01:35:11;;;;;;;14.27;5.28;;;;;;;19.59;94.77;96207.75;4975400;28;20207;-73
2021/07/16 01:37:37;;;;;;;13.15;5.50;;;;;;;19.51;94.98;96217.16;4974402;28;20599;-73
2021/07/16 01:40:05;;;;;;;12.73;5.63;;;;;;;19.61;94.47;96211.00;4975699;28;20246;-73
2021/07/16 01:42:37;;;;;;;10.93;6.20;;;;;;;19.57;94.26;96207.16;4974548;28;20211;-73
2021/07/16 01:45:05;;;;;;;11.38;5.93;;;;;;;19.50;94.71;96211.00;4975557;28;20210;-73
2021/07/16 01:47:32;;;;;;;11.48;5.88;;;;;;;19.34;95.38;96221.56;4974423;28;20228;-73
2021/07/16 01:49:59;;;;;;;10.43;5.70;;;;;;;19.48;94.80;96222.97;4975253;28;20310;-73
2021/07/16 01:52:26;;;;;;;15.73;5.60;;;;;;;19.44;94.46;96219.16;4975218;28;20600;-73
2021/07/16 01:54:52;;;;;;;10.93;5.60;;;;;;;19.23;95.77;96225.03;4975408;28;20208;-73
2021/07/16 01:57:18;;;;;;;10.82;6.22;;;;;;;19.29;95.52;96229.47;4974044;28;21356;-73
2021/07/16 01:59:46;;;;;;;9.57;5.35;;;;;;;19.45;95.60;96234.13;4975257;28;20706;-73
2021/07/16 02:02:14;;;;;;;13.80;5.30;;;;;;;19.39;95.76;96225.16;4974389;28;20207;-73
2021/07/16 02:04:40;;;;;;;10.35;5.63;;;;;;;19.42;95.51;96221.22;4974504;28;20210;-73
2021/07/16 02:07:07;;;;;;;11.80;5.35;;;;;;;19.53;94.47;96228.44;4974321;28;20242;-73
2021/07/16 02:09:33;;;;;;;14.38;5.88;;;;;;;19.50;94.50;96228.88;4975655;28;20235;-73
2021/07/16 02:12:00;;;;;;;9.70;5.60;;;;;;;19.45;94.52;96223.41;4974761;28;20203;-73
2021/07/16 02:14:27;;;;;;;18.92;6.38;;;;;;;19.45;94.28;96223.41;4975047;28;20207;-73
2021/07/16 02:16:55;;;;;;;14.68;5.60;;;;;;;19.48;94.55;96226.44;4974655;28;20686;-73
2021/07/16 02:19:25;;;;;;;12.23;5.60;;;;;;;19.40;95.44;96223.28;4974316;28;21070;-73
2021/07/16 02:21:51;;;;;;;12.27;6.22;;;;;;;19.31;95.04;96216.66;4971205;28;20208;-73
2021/07/16 02:24:18;;;;;;;11.52;6.15;;;;;;;19.18;95.90;96227.56;4975850;28;20203;-73
2021/07/16 02:26:45;;;;;;;15.88;6.53;;;;;;;19.20;95.69;96225.50;4978409;28;20364;-74
2021/07/16 02:29:11;;;;;;;10.63;5.85;;;;;;;19.23;95.70;96227.69;4974896;28;20219;-73
2021/07/16 02:31:37;;;;;;;12.18;5.47;;;;;;;19.19;96.22;96229.22;4978466;28;20206;-73
2021/07/16 02:34:05;;;;;;;16.17;5.93;;;;;;;19.25;95.77;96234.44;4977896;28;20217;-73
2021/07/16 02:36:33;;;;;;;11.65;5.20;;;;;;;19.24;95.55;96214.09;4977942;28;20206;-73
2021/07/16 02:39:00;;;;;;;15.85;5.43;;;;;;;19.27;95.41;96221.69;4977074;28;20227;-73
2021/07/16 02:41:26;;;;;;;12.93;6.30;;;;;;;19.31;95.35;96220.16;4978129;28;21124;-73
2021/07/16 02:43:53;;;;;;;9.38;6.28;;;;;;;19.24;95.71;96221.31;4977633;28;20204;-73
2021/07/16 02:46:19;;;;;;;12.85;5.88;;;;;;;19.13;96.30;96219.44;4977685;28;20203;-73
2021/07/16 02:48:45;;;;;;;12.88;6.15;;;;;;;19.26;95.97;96225.38;4976928;28;20234;-73
2021/07/16 02:51:13;;;;;;;16.65;6.03;;;;;;;19.37;95.26;96215.75;4978316;28;20204;-73
2021/07/16 02:53:39;;;;;;;16.05;5.85;;;;;;;19.42;94.68;96223.91;4977967;28;20199;-73
2021/07/16 02:56:06;;;;;;;17.60;6.10;;;;;;;19.43;94.38;96230.88;4977589;28;20207;-73
2021/07/16 02:58:32;;;;;;;11.75;6.22;;;;;;;19.44;93.67;96235.19;4977298;28;20203;-73
2021/07/16 03:00:59;;;;;;;11.18;5.55;;;;;;;19.26;95.11;96232.59;4977587;28;20626;-73
2021/07/16 03:03:26;;;;;;;14.45;6.10;;;;;;;19.29;95.06;96235.59;4977714;28;20211;-73
2021/07/16 03:05:52;;;;;;;15.13;5.82;;;;;;;19.26;95.87;96237.94;4977888;28;21187;-73
2021/07/16 03:08:20;;;;;;;12.48;6.13;;;;;;;19.40;95.27;96236.66;4976934;28;20227;-73
2021/07/16 03:10:47;;;;;;;11.95;6.15;;;;;;;19.40;95.31;96234.81;4977296;28;20234;-73
2021/07/16 03:13:15;;;;;;;16.05;6.45;;;;;;;19.52;94.99;96246.31;4977546;28;20578;-73
2021/07/16 03:15:43;;;;;;;21.23;5.78;;;;;;;19.42;95.81;96239.94;4977319;28;20214;-73
2021/07/16 03:18:10;;;;;;;11.90;6.35;;;;;;;19.48;95.37;96237.16;4976358;28;20203;-73
2021/07/16 03:20:38;;;;;;;16.30;8.00;;;;;;;19.42;95.86;96239.94;4977956;28;20239;-73
2021/07/16 03:23:05;;;;;;;14.75;8.02;;;;;;;19.43;95.97;96252.25;4977081;28;20211;-73
2021/07/16 03:25:35;;;;;;;12.55;7.05;;;;;;;19.44;96.47;96253.88;4976990;28;20294;-73
2021/07/16 03:28:03;;;;;;;15.45;7.78;;;;;;;19.40;96.69;96248.19;4976506;28;20300;-74
2021/07/16 03:30:31;;;;;;;15.95;8.27;;;;;;;19.34;97.56;96248.28;4975485;28;20842;-73
2021/07/16 03:32:58;;;;;;;18.77;8.65;;;;;;;19.43;97.33;96255.72;4977156;28;20200;-73
2021/07/16 03:35:25;;;;;;;15.70;7.82;;;;;;;19.01;97.83;96255.97;4976359;28;20226;-73
2021/07/16 03:37:52;;;;;;;15.30;8.20;;;;;;;19.44;95.85;96253.88;4977459;28;20207;-74
2021/07/16 03:40:22;;;;;;;18.05;8.68;;;;;;;19.53;96.31;96257.84;4976915;28;20227;-73
2021/07/16 03:42:50;;;;;;;13.13;7.57;;;;;;;19.47;97.11;96261.44;4976900;28;21134;-73
2021/07/16 03:45:18;;;;;;;16.42;8.07;;;;;;;19.22;96.59;96261.63;4976757;28;20662;-73
2021/07/16 03:47:46;;;;;;;19.30;7.65;;;;;;;19.22;97.30;96255.47;4976262;28;20677;-73
2021/07/16 03:50:14;;;;;;;14.07;7.38;;;;;;;19.47;96.28;96254.22;4976143;28;20219;-73
2021/07/16 03:52:41;;;;;;;12.85;7.65;;;;;;;19.53;95.73;96264.00;4977104;28;20509;-73
2021/07/16 03:55:09;;;;;;;18.20;8.50;;;;;;;19.55;96.38;96255.75;4977150;28;20228;-73
2021/07/16 03:57:37;;;;;;;19.55;8.57;;;;;;;19.55;96.34;96251.19;4975594;28;20294;-73
2021/07/16 04:00:06;;;;;;;16.23;8.23;;;;;;;19.64;96.15;96250.63;4976899;28;20250;-73
2021/07/16 04:02:33;;;;;;;17.55;7.53;;;;;;;19.61;96.26;96261.81;4975405;28;20203;-73
2021/07/16 04:05:00;;;;;;;11.48;6.88;;;;;;;19.64;96.07;96263.19;4977123;28;20214;-73
2021/07/16 04:07:28;;;;;;;17.80;7.50;;;;;;;19.51;95.33;96273.28;4975694;28;20230;-73
2021/07/16 04:09:55;;;;;;;13.88;7.70;;;;;;;19.49;95.74;96270.03;4977108;28;21193;-73
2021/07/16 04:12:22;;;;;;;17.85;7.70;;;;;;;19.54;95.82;96270.16;4976405;28;20200;-73
2021/07/16 04:14:50;;;;;;;16.60;8.57;;;;;;;19.63;96.18;96270.41;4976567;28;20215;-73
2021/07/16 04:17:20;;;;;;;13.02;7.75;;;;;;;19.69;95.81;96274.00;4975395;28;20200;-73
2021/07/16 04:19:47;;;;;;;13.40;7.43;;;;;;;19.70;96.35;96270.28;4976728;28;20226;-73
2021/07/16 04:22:14;;;;;;;14.07;7.53;;;;;;;19.74;95.98;96280.28;4976444;28;20841;-73
2021/07/16 04:24:43;;;;;;;21.02;8.23;;;;;;;19.80;95.74;96276.66;4977037;28;20207;-73
2021/07/16 04:27:11;;;;;;;17.13;8.25;;;;;;;19.75;94.05;96276.53;4974915;28;20223;-73
2021/07/16 04:29:38;;;;;;;14.13;7.65;;;;;;;19.77;94.59;96279.00;4973276;28;20215;-73
2021/07/16 04:32:07;;;;;;;16.63;8.02;;;;;;;19.83;94.45;96284.25;4976523;28;20207;-73
2021/07/16 04:34:37;;;;;;;17.42;7.97;;;;;;;19.84;94.55;96283.16;4976894;28;20706;-73
2021/07/16 04:37:05;;;;;;;11.77;6.97;;;;;;;19.81;94.42;96280.16;4975234;28;20739;-73
2021/07/16 04:39:32;;;;;;;14.40;7.55;;;;;;;19.77;95.26;96287.84;4976604;28;20230;-73
2021/07/16 04:41:59;;;;;;;15.13;7.47;;;;;;;19.79;95.20;96288.44;4976205;28;20218;-73
2021/07/16 04:44:26;;;;;;;15.35;7.57;;;;;;;19.86;95.09;96296.34;4976011;28;20203;-73
2021/07/16 04:46:53;;;;;;;15.32;7.72;;;;;;;19.75;93.26;96300.63;4975201;28;20204;-73
2021/07/16 04:49:19;;;;;;;15.77;7.28;;;;;;;19.87;92.58;96289.91;4975250;28;20237;-73
2021/07/16 04:51:47;;;;;;;15.90;7.38;;;;;;;20.01;93.44;96294.03;4975356;28;20559;-73
2021/07/16 04:54:15;;;;;;;19.77;7.25;;;;;;;19.91;94.17;96297.28;4976380;28;20210;-73
2021/07/16 04:56:42;;;;;;;20.52;7.53;;;;;;;20.00;94.11;96300.44;4976337;28;20210;-73
2021/07/16 04:59:09;;;;;;;13.43;7.88;;;;;;;20.05;93.94;96289.81;4974742;28;20228;-73
2021/07/16 05:01:35;;;;;;;13.68;7.88;;;;;;;20.09;93.22;96294.50;4976295;28;20207;-73
2021/07/16 05:04:02;;;;;;;16.15;8.30;;;;;;;20.20;92.57;96299.03;4976206;28;20214;-73
2021/07/16 05:06:28;;;;;;;17.60;7.47;;;;;;;20.20;91.82;96301.72;4976047;28;20199;-73
2021/07/16 05:08:56;;;;;;;13.90;7.10;;;;;;;20.22;90.29;96307.63;4974839;28;20238;-73
2021/07/16 05:11:23;;;;;;;18.38;6.88;;;;;;;20.22;90.39;96296.91;4976158;28;20213;-73
2021/07/16 05:13:50;;;;;;;16.80;6.80;;;;;;;20.26;91.02;96300.75;4975650;28;20245;-73
2021/07/16 05:16:18;;;;;;;12.30;7.20;;;;;;;20.28;91.78;96312.84;4975717;28;20589;-73
2021/07/16 05:18:45;;;;;;;11.68;7.43;;;;;;;20.35;90.34;96308.19;4974847;28;20721;-73
2021/07/16 05:21:13;;;;;;;14.43;7.30;;;;;;;20.31;92.24;96306.22;4975555;28;20203;-73
2021/07/16 05:23:40;;;;;;;20.65;7.88;;;;;;;20.15;91.79;96306.94;4975235;28;20210;-73
2021/07/16 05:26:08;;;;;;;16.35;7.97;;;;;;;20.34;92.05;96309.25;4976102;28;20214;-73
2021/07/16 05:28:34;;;;;;;18.20;7.72;;;;;;;20.34;92.47;96314.59;4972174;28;20581;-73
2021/07/16 05:31:01;;;;;;;23.27;8.35;;;;;;;20.32;92.26;96313.19;4975169;28;20211;-73
2021/07/16 05:33:28;;;;;;;16.77;8.68;;;;;;;20.25;93.19;96317.84;4975357;28;20219;-73
2021/07/16 05:35:54;;;;;;;20.35;10.43;;;;;;;20.13;92.82;96326.97;4975523;28;20226;-73
2021/07/16 05:38:22;;;;;;;16.98;9.77;;;;;;;20.03;94.22;96329.41;4974540;28;20858;-73
2021/07/16 05:40:48;;;;;;;21.50;9.70;;;;;;;20.28;93.67;96330.78;4975446;28;20219;-73
2021/07/16 05:43:16;;;;;;;16.13;9.10;;;;;;;20.48;92.78;96328.53;4975078;28;20203;-73
2021/07/16 05:45:43;;;;;;;15.30;8.05;;;;;;;20.60;91.11;96330.13;4974694;28;20211;-73
2021/07/16 05:48:11;;;;;;;13.85;8.05;;;;;;;20.54;92.08;96338.31;4973965;28;21208;-73
2021/07/16 05:50:38;;;;;;;13.63;7.60;;;;;;;20.69;90.56;96328.72;4974795;28;20230;-73
2021/07/16 05:53:05;;;;;;;11.90;7.22;;;;;;;20.52;91.35;96340.38;4975438;28;20702;-73
2021/07/16 05:55:32;;;;;;;14.50;7.32;;;;;;;20.51;90.62;96339.59;4975033;28;20203;-73
2021/07/16 05:57:59;;;;;;;14.32;7.55;;;;;;;20.44;91.95;96338.06;4974705;28;20221;-73
2021/07/16 06:00:27;;;;;;;12.10;7.72;;;;;;;20.67;90.97;96338.03;4978474;28;20740;-73
2021/07/16 06:02:54;;;;;;;9.38;6.88;;;;;;;20.64;90.23;96343.88;4978727;28;20286;-73
2021/07/16 06:05:20;;;;;;;10.55;5.93;;;;;;;20.53;90.36;96347.38;4978656;28;20207;-73
2021/07/16 06:07:47;;;;;;;9.82;5.38;;;;;;;20.75;89.69;96343.03;4977874;28;20592;-73
2021/07/16 06:10:14;;;;;;;12.93;5.78;;;;;;;20.88;90.10;96348.97;4978132;28;20223;-73
2021/07/16 06:12:40;;;;;;;8.52;5.65;;;;;;;20.76;90.23;96347.34;4978625;28;20218;-73
2021/07/16 06:15:08;;;;;;;9.60;5.88;;;;;;;21.02;89.72;96344.97;4978272;28;20214;-73
2021/07/16 06:17:36;;;;;;;8.88;5.70;;;;;;;21.00;88.47;96339.00;4977233;28;20648;-73
2021/07/16 06:20:06;;;;;;;7.40;5.60;;;;;;;20.72;89.73;96349.69;4978160;28;20250;-73
2021/07/16 06:22:41;;;;;;;8.80;5.78;;;;;;;20.94;88.71;96345.34;4978639;28;20211;-73
2021/07/16 06:25:09;;;;;;;8.23;5.35;;;;;;;21.09;87.90;96351.81;4978024;28;20205;-73
2021/07/16 06:27:36;;;;;;;8.10;5.75;;;;;;;20.92;88.94;96352.78;4977612;28;20211;-73
2021/07/16 06:30:04;;;;;;;9.32;5.85;;;;;;;21.07;89.01;96351.22;4975453;28;20234;-73
2021/07/16 06:32:30;;;;;;;10.50;5.90;;;;;;;21.07;87.89;96342.38;4978223;28;20214;-73
2021/07/16 06:34:58;;;;;;;8.38;5.63;;;;;;;21.03;89.03;96346.59;4978215;28;20203;-73
2021/07/16 06:37:24;;;;;;;9.35;5.72;;;;;;;21.35;87.60;96358.47;4976653;28;20815;-73
2021/07/16 06:39:51;;;;;;;9.85;5.65;;;;;;;21.37;88.23;96361.69;4977147;28;21130;-73
2021/07/16 06:42:18;;;;;;;8.27;5.63;;;;;;;21.42;87.03;96364.47;4977776;28;20211;-73
2021/07/16 06:44:44;;;;;;;10.13;5.68;;;;;;;21.70;84.35;96367.97;4977798;28;20594;-73
2021/07/16 06:47:11;;;;;;;8.32;5.60;;;;;;;21.54;85.48;96369.56;4977113;28;20217;-73
2021/07/16 06:49:38;;;;;;;7.78;5.75;;;;;;;21.25;84.39;96369.78;4977608;28;20772;-73
2021/07/16 06:52:06;;;;;;;7.60;4.85;;;;;;;21.64;83.93;96364.38;4977350;28;20765;-73
2021/07/16 06:54:33;;;;;;;9.00;5.40;;;;;;;21.49;85.79;96369.44;4977543;28;21002;-73
2021/07/16 06:56:59;;;;;;;6.43;5.00;;;;;;;21.26;86.51;96370.63;4976454;28;20211;-73
2021/07/16 06:59:26;;;;;;;7.55;5.28;;;;;;;21.05;87.44;96369.41;4977141;28;20231;-73
2021/07/16 07:01:52;;;;;;;7.82;5.82;;;;;;;21.29;86.23;96376.28;4977123;28;20647;-73
2021/07/16 07:04:19;;;;;;;8.43;5.95;;;;;;;21.25;87.96;96377.84;4977663;28;20226;-73
2021/07/16 07:06:45;;;;;;;6.93;5.35;;;;;;;21.62;86.62;96376.41;4977796;28;20552;-73
2021/07/16 07:09:13;;;;;;;7.45;5.50;;;;;;;21.50;86.75;96381.84;4977025;28;20709;-73
2021/07/16 07:11:39;;;;;;;13.75;5.70;;;;;;;21.55;84.78;96389.19;4976942;28;20203;-73
2021/07/16 07:14:06;;;;;;;7.45;5.90;;;;;;;21.68;88.04;96391.56;4977100;28;20214;-73
2021/07/16 07:16:33;;;;;;;7.50;5.45;;;;;;;21.58;83.94;96391.38;4977701;28;20207;-74
2021/07/16 07:18:59;;;;;;;6.32;4.82;;;;;;;21.85;83.15;96395.84;4976740;28;20227;-73
2021/07/16 07:21:26;;;;;;;6.45;4.70;;;;;;;21.83;86.32;96389.09;4977053;28;20222;-74
2021/07/16 07:23:52;;;;;;;7.38;5.50;;;;;;;22.02;83.68;96387.81;4977729;28;20211;-74
2021/07/16 07:26:20;;;;;;;7.05;5.35;;;;;;;22.37;82.69;96398.09;4977411;28;20215;-74
2021/07/16 07:28:47;;;;;;;7.80;4.60;;;;;;;22.33;80.05;96405.00;4974168;28;20245;-74
2021/07/16 07:31:13;;;;;;;6.30;4.55;;;;;;;22.13;81.06;96402.00;4976886;28;20204;-74
2021/07/16 07:33:40;;;;;;;4.22;3.53;;;;;;;22.32;80.46;96405.25;4977067;28;20204;-74
2021/07/16 07:36:06;;;;;;;4.78;2.90;;;;;;;22.57;78.29;96397.56;4976977;28;20710;-74
2021/07/16 07:38:35;;;;;;;4.13;2.85;;;;;;;22.65;78.75;96394.47;4976643;28;20210;-74
2021/07/16 07:41:01;;;;;;;5.20;2.83;;;;;;;22.60;80.95;96400.56;4976870;28;20988;-74
2021/07/16 07:43:29;;;;;;;6.07;2.42;;;;;;;23.02;76.38;96396.34;4976967;28;20203;-74
2021/07/16 07:45:56;;;;;;;7.40;3.60;;;;;;;22.86;74.05;96400.69;4976806;28;20204;-74
2021/07/16 07:48:22;;;;;;;4.03;2.80;;;;;;;22.79;76.30;96399.22;4976459;28;20223;-74
2021/07/16 07:50:49;;;;;;;7.40;2.42;;;;;;;22.69;74.00;96396.41;4976963;28;20223;-74
2021/07/16 07:53:15;;;;;;;4.65;2.15;;;;;;;22.84;74.40;96396.63;4977041;28;20210;-74
2021/07/16 07:55:42;;;;;;;3.03;2.45;;;;;;;22.62;77.44;96398.47;4977589;28;20256;-74
2021/07/16 07:58:09;;;;;;;4.30;2.35;;;;;;;22.49;78.47;96411.41;4975975;28;21018;-74
2021/07/16 08:00:36;;;;;;;4.32;2.67;;;;;;;22.40;79.42;96410.22;4976927;28;20741;-74
2021/07/16 08:03:03;;;;;;;3.30;2.55;;;;;;;22.15;79.38;96410.59;4976923;28;20214;-74
2021/07/16 08:05:30;;;;;;;6.72;2.50;;;;;;;22.29;79.18;96403.06;4976847;28;20207;-74
2021/07/16 08:07:56;;;;;;;4.18;2.90;;;;;;;22.33;78.95;96407.69;4976018;28;20207;-74
2021/07/16 08:10:23;;;;;;;3.20;2.90;;;;;;;21.92;78.73;96415.31;4977396;28;20572;-74
2021/07/16 08:12:51;;;;;;;4.47;2.85;;;;;;;22.60;79.98;96405.94;4975873;28;20207;-74
2021/07/16 08:15:18;;;;;;;6.78;3.20;;;;;;;22.63;76.63;96410.81;4975995;28;20208;-74
2021/07/16 08:17:46;;;;;;;3.83;2.88;;;;;;;22.95;75.87;96412.63;4976371;28;20196;-74
2021/07/16 08:20:13;;;;;;;3.63;3.33;;;;;;;22.97;75.68;96415.06;4976391;28;20219;-73
2021/07/16 08:22:42;;;;;;;4.25;3.38;;;;;;;22.97;77.47;96409.69;4974652;28;20215;-74
2021/07/16 08:25:10;;;;;;;4.63;3.60;;;;;;;22.69;76.25;96423.28;4976030;28;20726;-74
2021/07/16 08:27:37;;;;;;;6.63;3.55;;;;;;;22.65;77.38;96416.78;4975688;28;20277;-73
2021/07/16 08:30:04;;;;;;;5.18;3.63;;;;;;;22.85;77.93;96409.00;4973413;28;20239;-74
2021/07/16 08:32:30;;;;;;;4.47;3.50;;;;;;;22.88;77.88;96413.88;4976319;28;20230;-74
2021/07/16 08:34:58;;;;;;;5.22;3.85;;;;;;;22.65;77.72;96411.41;4976304;28;20210;-74
2021/07/16 08:37:25;;;;;;;5.63;3.35;;;;;;;22.73;76.03;96419.03;4975430;28;20214;-74
2021/07/16 08:39:51;;;;;;;6.97;3.45;;;;;;;23.14;73.63;96415.84;4976423;28;20219;-74
2021/07/16 08:42:18;;;;;;;4.00;3.22;;;;;;;23.68;73.69;96407.59;4975758;28;20218;-74
2021/07/16 08:44:45;;;;;;;3.30;3.00;;;;;;;23.95;72.18;96410.06;4976109;28;20574;-74
2021/07/16 08:47:12;;;;;;;4.80;2.80;;;;;;;23.88;69.47;96415.88;4975229;28;20770;-74
2021/07/16 08:49:40;;;;;;;5.70;3.10;;;;;;;23.30;71.34;96410.41;4975852;28;20577;-74
2021/07/16 08:52:09;;;;;;;3.85;2.90;;;;;;;23.24;71.93;96410.59;4976115;28;20211;-74
2021/07/16 08:54:38;;;;;;;3.03;2.63;;;;;;;24.02;70.98;96405.25;4975705;28;20204;-74
2021/07/16 08:57:06;;;;;;;5.80;3.20;;;;;;;24.50;68.70;96413.22;4975579;28;20666;-74
2021/07/16 08:59:32;;;;;;;5.00;3.30;;;;;;;24.56;67.60;96411.38;4975069;28;20220;-74
2021/07/16 09:02:01;;;;;;;5.53;3.33;;;;;;;24.84;68.21;96414.53;4975627;28;20683;-74
2021/07/16 09:04:28;;;;;;;4.47;3.03;;;;;;;24.69;69.20;96417.94;4976709;28;20200;-74
2021/07/16 09:06:55;;;;;;;6.38;3.00;;;;;;;24.94;72.09;96415.38;4975445;28;20214;-74
2021/07/16 09:09:25;;;;;;;5.50;3.13;;;;;;;24.99;72.84;96418.09;4974521;28;20231;-74
2021/07/16 09:11:53;;;;;;;3.33;3.00;;;;;;;24.84;66.85;96419.91;4975514;28;20222;-74
2021/07/16 09:14:21;;;;;;;3.53;3.03;;;;;;;25.22;68.22;96428.50;4975788;28;20289;-74
2021/07/16 09:16:59;;;;;;;3.63;2.97;;;;;;;25.03;67.47;96435.38;4975740;28;20294;-74
2021/07/16 09:19:35;;;;;;;3.88;3.50;;;;;;;24.87;67.96;96424.78;4975061;28;20219;-74
2021/07/16 09:22:03;;;;;;;4.40;3.70;;;;;;;24.73;68.16;96423.59;4975554;28;20221;-74
2021/07/16 09:24:31;;;;;;;5.28;3.80;;;;;;;24.39;69.96;96429.56;4975866;28;20204;-74
2021/07/16 09:26:58;;;;;;;5.45;4.40;;;;;;;24.12;71.42;96429.59;4974927;28;20206;-74
2021/07/16 09:29:29;;;;;;;5.32;4.05;;;;;;;24.72;67.84;96422.81;4972502;28;20280;-74
2021/07/16 09:32:07;;;;;;;5.00;4.40;;;;;;;24.54;67.19;96425.09;4975239;28;20226;-74
2021/07/16 09:34:34;;;;;;;4.90;4.05;;;;;;;24.55;68.00;96421.34;4975277;28;20199;-74
2021/07/16 09:37:08;;;;;;;4.95;3.90;;;;;;;24.53;68.46;96425.34;4975049;28;20226;-74
2021/07/16 09:39:37;;;;;;;4.90;4.13;;;;;;;24.60;69.29;96429.44;4975450;28;20263;-74
2021/07/16 09:42:05;;;;;;;4.63;4.13;;;;;;;24.67;66.92;96416.59;4974702;28;20218;-74
2021/07/16 09:44:34;;;;;;;4.88;4.38;;;;;;;24.72;66.62;96422.81;4974998;28;20667;-74
2021/07/16 09:47:09;;;;;;;5.00;4.50;;;;;;;24.88;65.62;96427.22;4971606;28;20215;-74
2021/07/16 09:49:35;;;;;;;4.93;4.10;;;;;;;25.16;66.75;96418.75;4974209;28;20317;-74
2021/07/16 09:52:10;;;;;;;6.40;4.43;;;;;;;25.51;69.18;96424.28;4973901;28;20210;-74
2021/07/16 09:54:39;;;;;;;4.68;4.05;;;;;;;25.76;65.08;96424.41;4974730;28;20812;-74
2021/07/16 09:57:06;;;;;;;4.97;4.28;;;;;;;25.86;64.50;96426.06;4974479;28;20214;-74
2021/07/16 09:59:32;;;;;;;5.80;3.60;;;;;;;26.05;61.08;96420.94;4974665;28;20238;-74
2021/07/16 10:02:00;;;;;;;6.18;3.90;;;;;;;25.44;61.45;96426.44;4975298;28;20226;-74
2021/07/16 10:04:32;;;;;;;5.72;3.85;;;;;;;25.87;58.29;96427.66;4971796;28;20907;-73
2021/07/16 10:06:59;;;;;;;4.20;3.80;;;;;;;25.89;62.86;96425.50;4974989;28;20552;-74
2021/07/16 10:09:25;;;;;;;4.65;3.40;;;;;;;26.18;57.50;96418.50;4975317;28;20254;-74
2021/07/16 10:11:55;;;;;;;6.32;4.03;;;;;;;26.00;61.19;96420.94;4974574;28;20206;-74
2021/07/16 10:14:22;;;;;;;4.55;4.10;;;;;;;26.00;62.40;96427.13;4974548;28;20684;-74
2021/07/16 10:16:50;;;;;;;4.53;4.13;;;;;;;25.54;64.11;96421.06;4975545;28;20203;-74
2021/07/16 10:19:17;;;;;;;4.50;3.78;;;;;;;25.94;62.00;96422.81;4974174;28;20273;-74
2021/07/16 10:21:44;;;;;;;3.97;3.58;;;;;;;25.87;61.50;96427.66;4974489;28;20215;-74
2021/07/16 10:24:12;;;;;;;3.42;3.13;;;;;;;26.52;61.10;96415.03;4974593;28;20210;-74
2021/07/16 10:26:40;;;;;;;3.50;3.20;;;;;;;26.92;58.47;96419.56;4975270;28;20203;-74
2021/07/16 10:29:33;;;;;;;5.47;3.28;;;;;;;27.41;58.02;96424.03;4973835;28;20227;-74
2021/07/16 10:31:59;;;;;;;3.15;2.85;;;;;;;27.11;52.62;96427.66;4974597;28;20203;-73
2021/07/16 10:34:37;;;;;;;3.97;3.58;;;;;;;27.61;56.70;96430.22;4975227;28;20596;-74
2021/07/16 10:37:06;;;;;;;4.03;3.55;;;;;;;27.32;55.71;96431.91;4974116;28;20214;-74
2021/07/16 10:39:49;;;;;;;4.75;3.33;;;;;;;26.81;57.64;96434.22;4974572;28;20227;-74
2021/07/16 10:42:39;;;;;;;5.35;3.45;;;;;;;26.34;57.09;96428.28;4974631;28;20211;-74
2021/07/16 10:45:09;;;;;;;4.72;3.40;;;;;;;26.00;58.29;96429.84;4974904;28;20203;-74
2021/07/16 10:47:38;;;;;;;5.15;3.65;;;;;;;25.48;62.89;96428.34;4977562;28;20199;-74
2021/07/16 10:50:07;;;;;;;5.25;4.03;;;;;;;25.39;63.00;96429.09;4977287;28;20249;-74
2021/07/16 10:52:45;;;;;;;5.20;4.70;;;;;;;25.19;66.29;96429.84;4977599;28;20203;-74
2021/07/16 10:55:12;;;;;;;6.03;5.43;;;;;;;25.18;66.90;96427.41;4977512;28;20203;-74
2021/07/16 10:57:41;;;;;;;6.10;5.20;;;;;;;25.16;64.99;96429.53;4977392;28;20207;-74
2021/07/16 11:00:12;;;;;;;5.32;4.82;;;;;;;24.95;65.45;96425.09;4977231;28;20289;-74
2021/07/16 11:02:44;;;;;;;6.22;5.18;;;;;;;25.05;64.99;96427.06;4977631;28;20294;-73
2021/07/16 11:05:48;;;;;;;7.65;4.72;;;;;;;25.02;65.86;96425.66;4973927;28;20199;-74
2021/07/16 11:08:42;;;;;;;6.28;5.05;;;;;;;25.00;64.18;96430.53;4976761;28;20207;-74
2021/07/16 11:11:11;;;;;;;6.47;4.78;;;;;;;25.09;64.44;96428.16;4968419;28;20231;-74
2021/07/16 11:13:39;;;;;;;5.75;4.22;;;;;;;25.32;63.02;96436.66;4977836;28;20755;-74
2021/07/16 11:16:44;;;;;;;5.95;4.15;;;;;;;25.22;63.57;96433.91;4976837;28;20226;-74
2021/07/16 11:19:32;;;;;;;6.30;4.20;;;;;;;25.20;60.63;96430.63;4976229;28;20311;-74
2021/07/16 11:22:08;;;;;;;6.00;3.80;;;;;;;25.35;61.90;96434.22;4972878;28;20694;-74
2021/07/16 11:24:40;;;;;;;4.53;3.75;;;;;;;25.43;62.66;96424.81;4977244;28;20210;-74
2021/07/16 11:27:10;;;;;;;4.93;3.60;;;;;;;25.65;60.45;96428.94;4977026;28;20199;-74
2021/07/16 11:29:39;;;;;;;4.38;3.72;;;;;;;25.98;56.47;96429.31;4977209;28;20227;-74
2021/07/16 11:32:10;;;;;;;5.07;4.10;;;;;;;26.02;61.11;96426.88;4976998;28;20235;-74
2021/07/16 11:34:38;;;;;;;3.85;3.38;;;;;;;26.58;58.72;96423.97;4976733;28;20210;-74